Time;durP1;ratioP1;P1;durP2;ratioP2;P2;SDS_P1;SDS_P2;PMS_P1;PMS_P2;Temp;Humidity;BMP_temperature;BMP_pressure;BME280_temperature;BME280_humidity;BME280_pressure;Samples;Min_cycle;Max_cycle;Signal;HPM_P1;HPM_P2
2024/04/21 00:02:23;;;;;;;6.97;1.40;;;;;;;;;;5521922;25;20805;-70
2024/04/21 00:04:49;;;;;;;14.40;1.70;;;;;;;;;;5527446;25;20836;-71
2024/04/21 00:07:14;;;;;;;12.33;1.73;;;;;;;;;;5518724;25;20854;-70
2024/04/21 00:09:40;;;;;;;4.77;1.13;;;;;;;;;;5526139;25;20557;-70
2024/04/21 00:12:06;;;;;;;8.87;1.67;;;;;;;;;;5519321;25;20790;-70
2024/04/21 00:14:31;;;;;;;9.83;1.40;;;;;;;;;;5520501;25;20622;-70
2024/04/21 00:16:57;;;;;;;7.57;1.23;;;;;;;;;;5519418;25;20328;-70
2024/04/21 00:19:22;;;;;;;11.07;1.53;;;;;;;;;;5507511;25;20243;-71
2024/04/21 00:21:48;;;;;;;13.23;1.30;;;;;;;;;;5535189;25;20393;-71
2024/04/21 00:24:13;;;;;;;6.23;1.17;;;;;;;;;;5519660;25;20231;-71
2024/04/21 00:26:38;;;;;;;12.43;1.90;;;;;;;;;;5513787;25;20232;-71
2024/04/21 00:29:04;;;;;;;16.67;1.70;;;;;;;;;;5518378;26;20245;-72
2024/04/21 00:31:30;;;;;;;8.73;1.23;;;;;;;;;;5530887;25;20236;-72
2024/04/21 00:33:55;;;;;;;7.03;2.40;;;;;;;;;;5527251;25;20235;-72
2024/04/21 00:36:21;;;;;;;8.37;1.30;;;;;;;;;;5519734;25;20270;-72
2024/04/21 00:38:47;;;;;;;6.03;1.27;;;;;;;;;;5521277;25;20231;-72
2024/04/21 00:41:12;;;;;;;6.83;1.33;;;;;;;;;;5528800;25;20230;-74
2024/04/21 00:43:38;;;;;;;5.93;0.97;;;;;;;;;;5487365;25;20303;-72
2024/04/21 00:46:03;;;;;;;4.43;0.97;;;;;;;;;;5503673;25;20255;-73
2024/04/21 00:48:30;;;;;;;8.57;1.33;;;;;;;;;;5518166;25;20286;-72
2024/04/21 00:50:56;;;;;;;8.00;1.23;;;;;;;;;;5520642;25;20232;-72
2024/04/21 00:53:23;;;;;;;4.90;1.00;;;;;;;;;;5517816;25;20266;-72
2024/04/21 00:55:51;;;;;;;10.07;1.20;;;;;;;;;;5484446;26;20278;-72
2024/04/21 00:58:18;;;;;;;6.20;1.27;;;;;;;;;;5512416;25;20244;-72
2024/04/21 01:00:47;;;;;;;10.03;1.20;;;;;;;;;;5514157;25;20274;-71
2024/04/21 01:03:12;;;;;;;10.07;1.23;;;;;;;;;;5525238;25;20684;-72
2024/04/21 01:05:38;;;;;;;12.43;2.13;;;;;;;;;;5517643;25;20284;-72
2024/04/21 01:08:05;;;;;;;11.77;1.30;;;;;;;;;;5519991;25;20247;-71
2024/04/21 01:10:31;;;;;;;5.50;1.03;;;;;;;;;;5519747;25;20692;-72
2024/04/21 01:12:56;;;;;;;8.40;1.03;;;;;;;;;;5526582;25;20236;-73
2024/04/21 01:15:22;;;;;;;7.20;1.23;;;;;;;;;;5486532;26;20822;-72
2024/04/21 01:17:47;;;;;;;5.03;0.83;;;;;;;;;;5515806;25;20887;-72
2024/04/21 01:20:13;;;;;;;8.00;1.90;;;;;;;;;;5487876;26;20593;-72
2024/04/21 01:22:46;;;;;;;8.83;1.03;;;;;;;;;;5522869;25;20330;-72
2024/04/21 01:25:11;;;;;;;9.63;1.17;;;;;;;;;;5520619;25;20752;-72
2024/04/21 01:27:37;;;;;;;5.53;1.00;;;;;;;;;;5512445;25;20265;-72
2024/04/21 01:30:02;;;;;;;6.47;1.30;;;;;;;;;;5519853;25;20367;-72
2024/04/21 01:32:28;;;;;;;13.13;1.07;;;;;;;;;;5519285;25;20283;-71
2024/04/21 01:34:53;;;;;;;7.00;1.23;;;;;;;;;;5517517;25;20237;-71
2024/04/21 01:37:19;;;;;;;6.80;1.20;;;;;;;;;;5519312;25;20459;-72
2024/04/21 01:39:44;;;;;;;8.23;1.13;;;;;;;;;;5518233;25;20235;-71
2024/04/21 01:42:10;;;;;;;7.10;1.17;;;;;;;;;;5515140;25;20290;-71
2024/04/21 01:44:35;;;;;;;6.07;1.10;;;;;;;;;;5517201;25;20286;-72
2024/04/21 01:47:01;;;;;;;12.37;1.47;;;;;;;;;;5506760;25;20232;-72
2024/04/21 01:49:27;;;;;;;17.73;1.70;;;;;;;;;;5475633;26;20235;-71
2024/04/21 01:51:53;;;;;;;10.23;1.20;;;;;;;;;;5517336;25;20223;-72
2024/04/21 01:54:18;;;;;;;6.97;1.17;;;;;;;;;;5512521;25;20331;-72
2024/04/21 01:56:44;;;;;;;15.37;1.40;;;;;;;;;;5518101;25;20247;-72
2024/04/21 01:59:09;;;;;;;6.07;1.13;;;;;;;;;;5514298;25;20750;-72
2024/04/21 02:01:34;;;;;;;7.20;0.90;;;;;;;;;;5518064;25;20621;-71
2024/04/21 02:04:00;;;;;;;4.27;0.90;;;;;;;;;;5521736;25;20231;-71
2024/04/21 02:06:25;;;;;;;9.13;1.20;;;;;;;;;;5518641;25;20247;-72
2024/04/21 02:08:51;;;;;;;7.23;0.90;;;;;;;;;;5514610;25;20235;-72
2024/04/21 02:11:16;;;;;;;9.27;0.93;;;;;;;;;;5519792;25;20282;-72
2024/04/21 02:13:41;;;;;;;13.43;1.30;;;;;;;;;;5516248;25;20241;-70
2024/04/21 02:16:07;;;;;;;4.30;0.90;;;;;;;;;;5516757;25;20239;-71
2024/04/21 02:18:32;;;;;;;9.30;1.40;;;;;;;;;;5517986;25;20278;-71
2024/04/21 02:20:58;;;;;;;4.07;1.20;;;;;;;;;;5514559;25;20278;-71
2024/04/21 02:23:23;;;;;;;7.70;1.57;;;;;;;;;;5519281;25;20235;-72
2024/04/21 02:25:59;;;;;;;10.97;1.03;;;;;;;;;;5514205;25;20235;-71
2024/04/21 02:28:24;;;;;;;10.20;1.33;;;;;;;;;;5518730;25;20297;-72
2024/04/21 02:30:50;;;;;;;8.00;1.20;;;;;;;;;;5458709;25;20248;-72
2024/04/21 02:33:15;;;;;;;14.77;1.60;;;;;;;;;;5516659;25;20342;-70
2024/04/21 02:35:41;;;;;;;14.83;1.10;;;;;;;;;;5518888;25;20236;-72
2024/04/21 02:38:07;;;;;;;7.97;1.40;;;;;;;;;;5515704;25;20235;-70
2024/04/21 02:40:33;;;;;;;9.73;1.50;;;;;;;;;;5529475;25;20280;-71
2024/04/21 02:42:58;;;;;;;6.13;1.57;;;;;;;;;;5478406;25;20322;-71
2024/04/21 02:45:24;;;;;;;8.83;1.90;;;;;;;;;;5513404;25;20240;-71
2024/04/21 02:47:49;;;;;;;8.93;1.23;;;;;;;;;;5492776;25;20289;-71
2024/04/21 02:50:15;;;;;;;6.33;1.70;;;;;;;;;;5497474;25;20239;-71
2024/04/21 02:52:40;;;;;;;10.43;1.50;;;;;;;;;;5512979;25;20239;-71
2024/04/21 02:55:06;;;;;;;10.37;1.10;;;;;;;;;;5518646;25;20357;-71
2024/04/21 02:57:32;;;;;;;13.67;1.43;;;;;;;;;;5500320;25;20292;-71
2024/04/21 02:59:57;;;;;;;11.57;1.33;;;;;;;;;;5520917;25;20236;-71
2024/04/21 03:02:23;;;;;;;8.20;1.80;;;;;;;;;;5520411;25;20327;-72
2024/04/21 03:04:49;;;;;;;8.80;1.60;;;;;;;;;;5515519;25;20762;-72
2024/04/21 03:07:14;;;;;;;9.97;1.30;;;;;;;;;;5536716;25;20266;-72
2024/04/21 03:09:43;;;;;;;11.40;1.40;;;;;;;;;;5521942;25;20757;-71
2024/04/21 03:12:09;;;;;;;3.80;0.80;;;;;;;;;;5519037;25;20711;-71
2024/04/21 03:14:35;;;;;;;9.23;1.73;;;;;;;;;;5521980;25;20232;-71
2024/04/21 03:17:02;;;;;;;8.73;1.23;;;;;;;;;;5539378;25;20234;-71
2024/04/21 03:19:28;;;;;;;6.97;1.20;;;;;;;;;;5520151;25;20545;-72
2024/04/21 03:21:54;;;;;;;10.27;1.90;;;;;;;;;;5517224;25;20269;-72
2024/04/21 03:24:20;;;;;;;5.37;1.20;;;;;;;;;;5528135;25;20274;-73
2024/04/21 03:26:46;;;;;;;10.07;1.17;;;;;;;;;;5533135;25;20675;-73
2024/04/21 03:29:11;;;;;;;8.67;1.17;;;;;;;;;;5518388;25;20277;-73
2024/04/21 03:31:36;;;;;;;7.77;1.20;;;;;;;;;;5512496;25;20240;-73
2024/04/21 03:34:02;;;;;;;5.07;1.27;;;;;;;;;;5519956;25;20287;-73
2024/04/21 03:36:27;;;;;;;12.67;1.27;;;;;;;;;;5521565;25;20344;-73
2024/04/21 03:38:53;;;;;;;7.80;0.83;;;;;;;;;;5521638;25;20648;-73
2024/04/21 03:41:18;;;;;;;8.47;1.20;;;;;;;;;;5515811;25;20239;-73
2024/04/21 03:43:46;;;;;;;4.67;1.17;;;;;;;;;;5477363;25;1143354;-73
2024/04/21 03:46:12;;;;;;;6.60;1.07;;;;;;;;;;5528897;25;20546;-72
2024/04/21 03:48:37;;;;;;;8.07;1.30;;;;;;;;;;5493881;25;20262;-73
2024/04/21 03:51:03;;;;;;;11.77;1.67;;;;;;;;;;5520653;25;20239;-72
2024/04/21 03:53:29;;;;;;;9.03;1.40;;;;;;;;;;5485267;26;20255;-72
2024/04/21 03:55:54;;;;;;;11.03;1.97;;;;;;;;;;5523796;25;20232;-73
2024/04/21 03:58:20;;;;;;;8.33;1.33;;;;;;;;;;5513679;25;20676;-73
2024/04/21 04:00:46;;;;;;;10.90;1.60;;;;;;;;;;5488481;26;20251;-73
2024/04/21 04:03:12;;;;;;;11.57;1.60;;;;;;;;;;5513483;25;20256;-73
2024/04/21 04:05:37;;;;;;;10.10;1.10;;;;;;;;;;5519100;25;20232;-74
2024/04/21 04:08:03;;;;;;;10.43;1.23;;;;;;;;;;5532459;25;20335;-73
2024/04/21 04:10:28;;;;;;;9.53;1.43;;;;;;;;;;5517251;25;20663;-73
2024/04/21 04:12:54;;;;;;;7.73;0.90;;;;;;;;;;5514335;25;20232;-72
2024/04/21 04:15:19;;;;;;;8.07;1.10;;;;;;;;;;5519723;25;20723;-73
2024/04/21 04:17:44;;;;;;;7.67;1.30;;;;;;;;;;5520833;25;20274;-74
2024/04/21 04:20:10;;;;;;;8.10;1.33;;;;;;;;;;5520332;25;20274;-73
2024/04/21 04:22:36;;;;;;;9.33;1.20;;;;;;;;;;5510231;25;20701;-72
2024/04/21 04:25:03;;;;;;;8.20;1.73;;;;;;;;;;5512939;25;20311;-72
2024/04/21 04:27:28;;;;;;;5.70;1.10;;;;;;;;;;5482896;25;20240;-72
2024/04/21 04:29:54;;;;;;;10.97;1.30;;;;;;;;;;5521823;25;20670;-73
2024/04/21 04:32:19;;;;;;;6.77;1.33;;;;;;;;;;5517007;25;20247;-72
2024/04/21 04:34:45;;;;;;;6.90;1.43;;;;;;;;;;5481025;26;20232;-72
2024/04/21 04:37:10;;;;;;;7.93;1.30;;;;;;;;;;5512384;25;20239;-72
2024/04/21 04:39:35;;;;;;;9.93;1.40;;;;;;;;;;5514895;25;20258;-73
2024/04/21 04:42:01;;;;;;;9.93;1.53;;;;;;;;;;5520365;25;20248;-72
2024/04/21 04:44:26;;;;;;;4.77;1.10;;;;;;;;;;5508062;25;20240;-72
2024/04/21 04:46:52;;;;;;;8.43;1.40;;;;;;;;;;5467992;26;20240;-73
2024/04/21 04:49:17;;;;;;;9.37;1.20;;;;;;;;;;5516941;25;20235;-72
2024/04/21 04:51:43;;;;;;;8.47;1.47;;;;;;;;;;5508417;25;20232;-73
2024/04/21 04:54:08;;;;;;;6.13;1.20;;;;;;;;;;5514328;25;20296;-72
2024/04/21 04:56:34;;;;;;;6.90;1.10;;;;;;;;;;5514965;25;20255;-73
2024/04/21 04:58:59;;;;;;;8.30;1.37;;;;;;;;;;5521366;25;20262;-73
2024/04/21 05:01:24;;;;;;;6.07;1.07;;;;;;;;;;5487498;25;20270;-72
2024/04/21 05:03:50;;;;;;;6.97;1.40;;;;;;;;;;5519232;25;20270;-73
2024/04/21 05:06:15;;;;;;;9.37;1.13;;;;;;;;;;5517933;25;20329;-73
2024/04/21 05:08:41;;;;;;;6.80;1.23;;;;;;;;;;5521859;25;20243;-73
2024/04/21 05:11:06;;;;;;;10.93;1.73;;;;;;;;;;5519479;25;20719;-73
2024/04/21 05:13:31;;;;;;;10.47;1.43;;;;;;;;;;5516324;25;20259;-73
2024/04/21 05:15:57;;;;;;;12.40;1.90;;;;;;;;;;5511364;25;20405;-73
2024/04/21 05:18:22;;;;;;;12.13;1.70;;;;;;;;;;5517425;25;20247;-73
2024/04/21 05:20:48;;;;;;;8.57;1.27;;;;;;;;;;5510885;25;20294;-73
2024/04/21 05:23:13;;;;;;;11.67;1.97;;;;;;;;;;5517775;25;20383;-73
2024/04/21 05:25:39;;;;;;;17.63;2.00;;;;;;;;;;5494873;25;20284;-73
2024/04/21 05:28:05;;;;;;;11.37;1.40;;;;;;;;;;5520335;25;20231;-73
2024/04/21 05:30:30;;;;;;;10.07;1.77;;;;;;;;;;5524059;25;20231;-73
2024/04/21 05:32:56;;;;;;;8.53;1.70;;;;;;;;;;5483835;25;20275;-73
2024/04/21 05:35:21;;;;;;;7.43;2.00;;;;;;;;;;5511776;25;20231;-73
2024/04/21 05:37:47;;;;;;;7.73;1.40;;;;;;;;;;5507190;25;20283;-73
2024/04/21 05:40:12;;;;;;;10.57;1.87;;;;;;;;;;5508351;25;20235;-73
2024/04/21 05:42:38;;;;;;;9.20;1.57;;;;;;;;;;5516410;25;20235;-72
2024/04/21 05:45:04;;;;;;;9.87;2.10;;;;;;;;;;5509415;25;20334;-72
2024/04/21 05:47:30;;;;;;;14.23;1.90;;;;;;;;;;5514024;25;20244;-72
2024/04/21 05:49:55;;;;;;;8.47;1.60;;;;;;;;;;5519300;25;20725;-72
2024/04/21 05:52:21;;;;;;;6.67;1.77;;;;;;;;;;5520338;25;20327;-72
2024/04/21 05:54:46;;;;;;;10.77;1.37;;;;;;;;;;5516798;26;20334;-72
2024/04/21 05:57:12;;;;;;;16.20;2.20;;;;;;;;;;5507887;25;20256;-72
2024/04/21 05:59:37;;;;;;;9.10;2.10;;;;;;;;;;5519522;25;20235;-74
2024/04/21 06:02:03;;;;;;;7.20;2.43;;;;;;;;;;5529759;25;20239;-72
2024/04/21 06:04:31;;;;;;;10.83;2.40;;;;;;;;;;5517643;25;20245;-72
2024/04/21 06:06:57;;;;;;;12.13;2.93;;;;;;;;;;5513794;25;20252;-72
2024/04/21 06:09:23;;;;;;;12.67;3.43;;;;;;;;;;5514608;25;20236;-71
2024/04/21 06:11:48;;;;;;;16.80;2.97;;;;;;;;;;5490367;25;20236;-72
2024/04/21 06:14:14;;;;;;;14.67;2.70;;;;;;;;;;5518396;25;20872;-72
2024/04/21 06:16:39;;;;;;;8.03;2.70;;;;;;;;;;5518834;25;20231;-73
2024/04/21 06:19:05;;;;;;;10.17;2.77;;;;;;;;;;5525723;25;20246;-72
2024/04/21 06:21:30;;;;;;;6.70;2.40;;;;;;;;;;5519647;25;20227;-72
2024/04/21 06:23:55;;;;;;;13.33;2.87;;;;;;;;;;5516435;25;20723;-72
2024/04/21 06:26:21;;;;;;;8.73;2.37;;;;;;;;;;5517801;25;20294;-72
2024/04/21 06:28:47;;;;;;;13.17;2.93;;;;;;;;;;5473055;25;20236;-72
2024/04/21 06:31:12;;;;;;;15.73;3.00;;;;;;;;;;5522559;25;20234;-73
2024/04/21 06:33:38;;;;;;;10.87;2.50;;;;;;;;;;5531569;25;20799;-72
2024/04/21 06:36:03;;;;;;;16.10;3.43;;;;;;;;;;5518474;25;20282;-71
2024/04/21 06:38:30;;;;;;;10.87;2.53;;;;;;;;;;5505607;25;20276;-71
2024/04/21 06:40:56;;;;;;;14.60;3.00;;;;;;;;;;5516196;25;20275;-71
2024/04/21 06:43:22;;;;;;;14.70;3.30;;;;;;;;;;5516691;25;20224;-71
2024/04/21 06:45:48;;;;;;;14.57;3.70;;;;;;;;;;5518049;25;20275;-71
2024/04/21 06:48:14;;;;;;;23.53;3.30;;;;;;;;;;5512017;25;20695;-71
2024/04/21 06:50:40;;;;;;;15.93;3.43;;;;;;;;;;5516899;25;20262;-70
2024/04/21 06:53:06;;;;;;;12.07;3.97;;;;;;;;;;5524782;25;20328;-71
2024/04/21 06:55:31;;;;;;;10.63;3.10;;;;;;;;;;5518538;25;20247;-71
2024/04/21 06:57:57;;;;;;;12.80;3.83;;;;;;;;;;5515321;25;20282;-71
2024/04/21 07:00:22;;;;;;;14.90;3.60;;;;;;;;;;5508777;25;20304;-71
2024/04/21 07:02:48;;;;;;;10.90;4.07;;;;;;;;;;5526671;25;20234;-71
2024/04/21 07:05:13;;;;;;;8.13;3.30;;;;;;;;;;5518304;25;20269;-71
2024/04/21 07:07:38;;;;;;;16.17;3.60;;;;;;;;;;5521197;25;20262;-71
2024/04/21 07:10:04;;;;;;;14.30;3.57;;;;;;;;;;5513809;25;20637;-71
2024/04/21 07:12:30;;;;;;;6.77;3.17;;;;;;;;;;5515174;25;20369;-71
2024/04/21 07:14:55;;;;;;;8.20;3.63;;;;;;;;;;5511592;25;20329;-71
2024/04/21 07:17:21;;;;;;;7.03;3.60;;;;;;;;;;5474711;26;20291;-71
2024/04/21 07:19:47;;;;;;;9.30;3.67;;;;;;;;;;5511890;25;20867;-72
2024/04/21 07:22:12;;;;;;;7.07;3.70;;;;;;;;;;5505740;25;20249;-71
2024/04/21 07:24:38;;;;;;;8.73;3.83;;;;;;;;;;5520629;25;20271;-72
2024/04/21 07:27:04;;;;;;;8.17;3.47;;;;;;;;;;5511675;25;20793;-72
2024/04/21 07:29:29;;;;;;;7.30;4.13;;;;;;;;;;5513755;25;20244;-71
2024/04/21 07:31:55;;;;;;;10.67;3.80;;;;;;;;;;5514729;25;20826;-72
2024/04/21 07:34:21;;;;;;;9.87;4.63;;;;;;;;;;5518596;25;20248;-71
2024/04/21 07:36:46;;;;;;;7.27;4.40;;;;;;;;;;5503036;25;20256;-71
2024/04/21 07:39:13;;;;;;;7.63;4.83;;;;;;;;;;5513312;25;20240;-71
2024/04/21 07:41:40;;;;;;;8.60;5.10;;;;;;;;;;5516175;25;20301;-71
2024/04/21 07:44:05;;;;;;;8.33;5.70;;;;;;;;;;5534141;25;20366;-71
2024/04/21 07:46:31;;;;;;;9.80;6.53;;;;;;;;;;5498258;25;20309;-71
2024/04/21 07:48:57;;;;;;;9.67;5.53;;;;;;;;;;5529744;25;20239;-71
2024/04/21 07:51:23;;;;;;;10.23;6.13;;;;;;;;;;5516230;25;20530;-69
2024/04/21 07:53:48;;;;;;;10.13;6.60;;;;;;;;;;5521296;25;20282;-70
2024/04/21 07:56:14;;;;;;;8.97;6.50;;;;;;;;;;5519097;25;20360;-70
2024/04/21 07:58:39;;;;;;;7.50;6.23;;;;;;;;;;5511226;25;20248;-70
2024/04/21 08:01:06;;;;;;;10.60;7.00;;;;;;;;;;5519650;25;20286;-70
2024/04/21 08:03:31;;;;;;;9.73;7.27;;;;;;;;;;5523507;25;20232;-68
2024/04/21 08:05:59;;;;;;;9.07;6.83;;;;;;;;;;5510414;25;20273;-70
2024/04/21 08:08:25;;;;;;;10.67;6.70;;;;;;;;;;5517999;25;20277;-71
2024/04/21 08:10:58;;;;;;;13.93;7.37;;;;;;;;;;5510366;25;20244;-70
2024/04/21 08:13:24;;;;;;;9.37;6.97;;;;;;;;;;5518883;25;20280;-70
2024/04/21 08:15:49;;;;;;;10.73;6.93;;;;;;;;;;5484922;25;20719;-70
2024/04/21 08:18:15;;;;;;;10.97;7.43;;;;;;;;;;5516319;25;20251;-69
2024/04/21 08:20:40;;;;;;;11.07;7.03;;;;;;;;;;5519582;25;20224;-70
2024/04/21 08:23:06;;;;;;;9.97;7.30;;;;;;;;;;5520571;25;20227;-70
2024/04/21 08:25:31;;;;;;;15.20;7.80;;;;;;;;;;5506041;25;20670;-70
2024/04/21 08:27:56;;;;;;;9.10;6.90;;;;;;;;;;5519878;25;20342;-70
2024/04/21 08:30:22;;;;;;;9.30;7.17;;;;;;;;;;5520414;25;20251;-70
2024/04/21 08:32:47;;;;;;;10.00;6.77;;;;;;;;;;5520587;25;20254;-70
2024/04/21 08:35:13;;;;;;;8.87;5.60;;;;;;;;;;5486813;25;20239;-69
2024/04/21 08:37:39;;;;;;;11.27;5.60;;;;;;;;;;5518203;25;20235;-70
2024/04/21 08:40:05;;;;;;;8.43;4.93;;;;;;;;;;5502704;25;20275;-71
2024/04/21 08:42:37;;;;;;;8.00;5.10;;;;;;;;;;5522434;25;20355;-70
2024/04/21 08:45:05;;;;;;;9.10;4.80;;;;;;;;;;5518790;25;20591;-70
2024/04/21 08:47:32;;;;;;;7.80;5.00;;;;;;;;;;5509066;25;21001;-71
2024/04/21 08:50:00;;;;;;;6.93;4.83;;;;;;;;;;5508326;25;20316;-71
2024/04/21 08:52:25;;;;;;;7.13;4.57;;;;;;;;;;5514234;25;20324;-69
2024/04/21 08:54:51;;;;;;;8.63;4.83;;;;;;;;;;5513194;25;20243;-70
2024/04/21 08:57:19;;;;;;;5.67;3.97;;;;;;;;;;5518095;25;20244;-68
2024/04/21 08:59:46;;;;;;;7.43;4.57;;;;;;;;;;5521010;25;20295;-69
2024/04/21 09:02:12;;;;;;;7.37;4.87;;;;;;;;;;5512790;25;20286;-68
2024/04/21 09:04:43;;;;;;;7.57;4.80;;;;;;;;;;5513939;25;20235;-70
2024/04/21 09:07:10;;;;;;;6.90;5.07;;;;;;;;;;5511482;25;20425;-70
2024/04/21 09:09:36;;;;;;;9.55;5.50;;;;;;;;;;5517945;25;20780;-71
2024/04/21 09:12:02;;;;;;;8.43;5.77;;;;;;;;;;5512183;25;20837;-69
2024/04/21 09:14:27;;;;;;;7.72;5.45;;;;;;;;;;5502339;25;20312;-70
2024/04/21 09:16:53;;;;;;;7.80;5.30;;;;;;;;;;5509859;25;20312;-70
2024/04/21 09:19:19;;;;;;;7.77;5.43;;;;;;;;;;5512567;25;20282;-70
2024/04/21 09:21:46;;;;;;;10.95;6.15;;;;;;;;;;5518611;25;20227;-69
2024/04/21 09:24:11;;;;;;;9.02;6.38;;;;;;;;;;5510703;25;20563;-70
2024/04/21 09:26:37;;;;;;;7.45;5.60;;;;;;;;;;5508690;25;20255;-71
2024/04/21 09:29:03;;;;;;;8.57;5.03;;;;;;;;;;5473200;26;20325;-71
2024/04/21 09:31:30;;;;;;;6.97;4.85;;;;;;;;;;5510263;25;20244;-70
2024/04/21 09:33:55;;;;;;;5.20;3.95;;;;;;;;;;5514074;25;20228;-72
2024/04/21 09:36:23;;;;;;;7.00;4.00;;;;;;;;;;5514698;25;20228;-70
2024/04/21 09:38:51;;;;;;;6.10;3.63;;;;;;;;;;5507290;25;20244;-71
2024/04/21 09:41:17;;;;;;;4.35;3.60;;;;;;;;;;5515123;25;20247;-70
2024/04/21 09:43:43;;;;;;;5.45;3.83;;;;;;;;;;5515409;25;20232;-71
2024/04/21 09:46:11;;;;;;;9.60;3.67;;;;;;;;;;5516072;25;20375;-71
2024/04/21 09:48:37;;;;;;;5.50;3.15;;;;;;;;;;5479823;26;20274;-71
2024/04/21 09:51:08;;;;;;;5.30;3.10;;;;;;;;;;5518962;25;20232;-70
2024/04/21 09:53:35;;;;;;;4.07;2.60;;;;;;;;;;5480044;26;20262;-71
2024/04/21 09:56:03;;;;;;;3.80;2.50;;;;;;;;;;5508570;25;20243;-70
2024/04/21 09:58:31;;;;;;;6.38;2.88;;;;;;;;;;5519589;25;20594;-72
2024/04/21 10:00:58;;;;;;;4.43;2.63;;;;;;;;;;5476886;26;20730;-70
2024/04/21 10:03:24;;;;;;;3.63;2.30;;;;;;;;;;5503790;25;20351;-69
2024/04/21 10:05:52;;;;;;;3.63;2.53;;;;;;;;;;5506570;25;20783;-70
2024/04/21 10:08:18;;;;;;;2.75;2.05;;;;;;;;;;5514903;25;20579;-70
2024/04/21 10:10:49;;;;;;;3.65;2.00;;;;;;;;;;5481063;26;20243;-70
2024/04/21 10:13:15;;;;;;;3.13;2.30;;;;;;;;;;5486269;25;20270;-69
2024/04/21 10:15:42;;;;;;;2.40;2.10;;;;;;;;;;5486667;25;20658;-70
2024/04/21 10:18:07;;;;;;;2.80;1.70;;;;;;;;;;5517516;25;20583;-69
2024/04/21 10:20:37;;;;;;;2.40;2.05;;;;;;;;;;5523997;25;20275;-71
2024/04/21 10:23:09;;;;;;;2.53;2.15;;;;;;;;;;5498244;25;20645;-69
2024/04/21 10:25:36;;;;;;;2.47;1.85;;;;;;;;;;5527117;25;20633;-69
2024/04/21 10:28:06;;;;;;;3.10;1.77;;;;;;;;;;5516049;25;20344;-70
2024/04/21 10:30:31;;;;;;;2.92;1.67;;;;;;;;;;5515610;25;20794;-69
2024/04/21 10:33:02;;;;;;;2.83;2.10;;;;;;;;;;5517556;25;20232;-69
2024/04/21 10:35:35;;;;;;;2.22;1.75;;;;;;;;;;5518566;25;20267;-69
2024/04/21 10:38:13;;;;;;;3.53;1.73;;;;;;;;;;5515600;25;20235;-69
2024/04/21 10:40:47;;;;;;;2.80;1.88;;;;;;;;;;5517593;25;20331;-69
2024/04/21 10:43:14;;;;;;;1.73;1.42;;;;;;;;;;5515263;25;20278;-69
2024/04/21 10:45:39;;;;;;;2.17;1.95;;;;;;;;;;5517377;25;20339;-70
2024/04/21 10:48:06;;;;;;;2.75;1.75;;;;;;;;;;5516355;25;20295;-70
2024/04/21 10:50:34;;;;;;;2.88;1.95;;;;;;;;;;5524791;25;20282;-68
2024/04/21 10:53:00;;;;;;;2.58;1.63;;;;;;;;;;5516443;25;20262;-69
2024/04/21 10:55:26;;;;;;;2.05;1.50;;;;;;;;;;5513712;25;20266;-70
2024/04/21 10:57:51;;;;;;;2.00;1.75;;;;;;;;;;5512336;25;20735;-70
2024/04/21 11:00:17;;;;;;;2.78;1.55;;;;;;;;;;5521513;25;20233;-70
2024/04/21 11:02:42;;;;;;;2.47;1.77;;;;;;;;;;5515116;25;20287;-70
2024/04/21 11:05:09;;;;;;;1.98;1.77;;;;;;;;;;5512112;25;20240;-70
2024/04/21 11:07:35;;;;;;;2.45;1.38;;;;;;;;;;5515838;25;20232;-70
2024/04/21 11:10:00;;;;;;;4.63;1.73;;;;;;;;;;5515948;25;20828;-69
2024/04/21 11:12:26;;;;;;;2.03;1.67;;;;;;;;;;5523834;25;20279;-70
2024/04/21 11:14:58;;;;;;;2.30;1.80;;;;;;;;;;5517653;25;20228;-70
2024/04/21 11:17:23;;;;;;;2.50;2.10;;;;;;;;;;5520144;25;20719;-70
2024/04/21 11:19:49;;;;;;;2.28;1.83;;;;;;;;;;5517367;25;20282;-71
2024/04/21 11:22:16;;;;;;;2.67;2.20;;;;;;;;;;5512158;25;20813;-69
2024/04/21 11:24:42;;;;;;;2.58;1.65;;;;;;;;;;5521098;25;20443;-69
2024/04/21 11:27:08;;;;;;;2.35;1.63;;;;;;;;;;5518439;25;20555;-70
2024/04/21 11:29:34;;;;;;;1.83;1.60;;;;;;;;;;5512161;25;20244;-70
2024/04/21 11:31:59;;;;;;;2.08;1.70;;;;;;;;;;5524173;25;20262;-70
2024/04/21 11:34:26;;;;;;;2.22;1.83;;;;;;;;;;5521144;25;20240;-69
2024/04/21 11:36:52;;;;;;;2.72;2.00;;;;;;;;;;5520395;25;20282;-70
2024/04/21 11:39:18;;;;;;;3.50;1.70;;;;;;;;;;5513833;25;20247;-69
2024/04/21 11:41:44;;;;;;;2.45;1.98;;;;;;;;;;5527101;25;20227;-69
2024/04/21 11:44:17;;;;;;;2.42;1.90;;;;;;;;;;5519732;25;20270;-69
2024/04/21 11:46:43;;;;;;;2.10;1.65;;;;;;;;;;5520921;25;20647;-70
2024/04/21 11:49:08;;;;;;;3.30;1.75;;;;;;;;;;5520276;25;20224;-70
2024/04/21 11:51:34;;;;;;;1.92;1.67;;;;;;;;;;5518986;25;20254;-69
2024/04/21 11:53:59;;;;;;;2.35;1.48;;;;;;;;;;5522094;25;20286;-69
2024/04/21 11:56:25;;;;;;;2.40;1.70;;;;;;;;;;5518926;25;20274;-70
2024/04/21 11:58:51;;;;;;;3.42;1.67;;;;;;;;;;5516737;25;20252;-70
2024/04/21 12:01:16;;;;;;;1.98;1.70;;;;;;;;;;5512041;25;20405;-69
2024/04/21 12:03:42;;;;;;;3.17;1.90;;;;;;;;;;5527257;25;20224;-68
2024/04/21 12:06:07;;;;;;;2.28;1.48;;;;;;;;;;5520393;25;20231;-70
2024/04/21 12:08:33;;;;;;;2.03;1.73;;;;;;;;;;5522075;25;20891;-70
2024/04/21 12:10:58;;;;;;;2.03;1.75;;;;;;;;;;5519208;25;20235;-70
2024/04/21 12:13:24;;;;;;;3.08;1.70;;;;;;;;;;5516585;25;20236;-70
2024/04/21 12:15:50;;;;;;;1.88;1.38;;;;;;;;;;5519025;25;20236;-70
2024/04/21 12:18:15;;;;;;;2.03;1.45;;;;;;;;;;5517793;25;20282;-71
2024/04/21 12:20:41;;;;;;;2.25;1.48;;;;;;;;;;5521571;25;20699;-71
2024/04/21 12:23:08;;;;;;;2.25;1.13;;;;;;;;;;5526147;25;20226;-69
2024/04/21 12:25:34;;;;;;;2.17;1.42;;;;;;;;;;5513389;25;20260;-72
2024/04/21 12:28:00;;;;;;;1.48;1.30;;;;;;;;;;5514665;25;20270;-70
2024/04/21 12:30:25;;;;;;;1.45;1.35;;;;;;;;;;5520565;25;20235;-69
2024/04/21 12:32:51;;;;;;;2.67;1.63;;;;;;;;;;5501431;25;20266;-69
2024/04/21 12:35:17;;;;;;;3.10;1.70;;;;;;;;;;5518193;25;20293;-71
2024/04/21 12:37:43;;;;;;;2.25;1.20;;;;;;;;;;5517208;25;20338;-68
2024/04/21 12:40:09;;;;;;;1.45;1.10;;;;;;;;;;5519796;25;20236;-68
2024/04/21 12:42:35;;;;;;;2.42;1.35;;;;;;;;;;5518204;25;20231;-69
2024/04/21 12:45:00;;;;;;;2.33;1.40;;;;;;;;;;5514771;25;20290;-69
2024/04/21 12:47:25;;;;;;;3.08;1.40;;;;;;;;;;5508103;25;20236;-69
2024/04/21 12:49:52;;;;;;;2.22;1.90;;;;;;;;;;5502906;25;20275;-71
2024/04/21 12:52:18;;;;;;;2.50;1.60;;;;;;;;;;5512795;25;20227;-70
2024/04/21 12:54:44;;;;;;;1.73;1.50;;;;;;;;;;5514431;25;20324;-69
2024/04/21 12:57:09;;;;;;;1.60;1.40;;;;;;;;;;5503612;25;20233;-69
2024/04/21 12:59:34;;;;;;;2.33;1.48;;;;;;;;;;5542122;25;20268;-69
2024/04/21 13:02:00;;;;;;;1.60;1.40;;;;;;;;;;5526200;25;20238;-69
2024/04/21 13:04:25;;;;;;;1.85;1.63;;;;;;;;;;5523091;25;20325;-70
2024/04/21 13:06:51;;;;;;;3.92;1.63;;;;;;;;;;5515716;25;20323;-70
2024/04/21 13:09:17;;;;;;;2.20;1.80;;;;;;;;;;5510160;25;20248;-69
2024/04/21 13:11:42;;;;;;;1.90;1.60;;;;;;;;;;5515728;25;20560;-69
2024/04/21 13:14:08;;;;;;;3.80;1.70;;;;;;;;;;5518653;25;20251;-69
2024/04/21 13:16:33;;;;;;;2.28;1.50;;;;;;;;;;5525685;25;20339;-69
2024/04/21 13:19:07;;;;;;;2.30;1.77;;;;;;;;;;5516091;25;20350;-70
2024/04/21 13:21:32;;;;;;;2.65;1.85;;;;;;;;;;5518150;25;20251;-73
2024/04/21 13:23:58;;;;;;;2.40;1.90;;;;;;;;;;5517620;25;20765;-69
2024/04/21 13:26:23;;;;;;;1.27;1.17;;;;;;;;;;5513267;25;20429;-69
2024/04/21 13:28:49;;;;;;;1.90;1.40;;;;;;;;;;5515192;25;20267;-69
2024/04/21 13:31:15;;;;;;;1.80;1.50;;;;;;;;;;5518614;25;20235;-68
2024/04/21 13:33:41;;;;;;;3.03;1.42;;;;;;;;;;5517648;25;20274;-69
2024/04/21 13:36:07;;;;;;;2.13;1.50;;;;;;;;;;5486425;25;20242;-70
2024/04/21 13:38:32;;;;;;;3.00;1.25;;;;;;;;;;5521006;25;20278;-71
2024/04/21 13:41:00;;;;;;;1.73;1.42;;;;;;;;;;5516526;25;20270;-70
2024/04/21 13:43:27;;;;;;;1.80;1.38;;;;;;;;;;5519357;25;20287;-69
2024/04/21 13:45:52;;;;;;;2.17;1.30;;;;;;;;;;5526906;25;20234;-70
2024/04/21 13:48:18;;;;;;;3.72;1.67;;;;;;;;;;5516383;25;20772;-70
2024/04/21 13:50:43;;;;;;;1.20;1.10;;;;;;;;;;5520277;25;20330;-71
2024/04/21 13:53:09;;;;;;;2.35;1.15;;;;;;;;;;5511453;25;20437;-70
2024/04/21 13:55:34;;;;;;;1.08;0.93;;;;;;;;;;5513541;25;20232;-71
2024/04/21 13:58:00;;;;;;;1.15;1.00;;;;;;;;;;5513894;25;20622;-70
2024/04/21 14:00:25;;;;;;;1.23;1.00;;;;;;;;;;5496321;25;20264;-71
2024/04/21 14:02:51;;;;;;;4.00;1.02;;;;;;;;;;5507208;26;20745;-69
2024/04/21 14:05:16;;;;;;;1.48;1.10;;;;;;;;;;5537540;25;20277;-69
2024/04/21 14:07:42;;;;;;;1.20;1.08;;;;;;;;;;5521883;25;20363;-70
2024/04/21 14:10:07;;;;;;;1.40;0.95;;;;;;;;;;5515677;25;20243;-70
2024/04/21 14:12:33;;;;;;;1.20;1.10;;;;;;;;;;5517652;25;20227;-68
2024/04/21 14:14:58;;;;;;;1.52;1.00;;;;;;;;;;5518366;25;20278;-71
2024/04/21 14:17:26;;;;;;;1.17;1.08;;;;;;;;;;5524418;25;20278;-70
2024/04/21 14:19:51;;;;;;;2.78;0.95;;;;;;;;;;5518545;25;20715;-69
2024/04/21 14:22:17;;;;;;;0.93;0.70;;;;;;;;;;5508911;25;20298;-68
2024/04/21 14:24:42;;;;;;;1.15;0.90;;;;;;;;;;5502364;25;20270;-70
2024/04/21 14:27:08;;;;;;;0.75;0.70;;;;;;;;;;5506709;25;20243;-71
2024/04/21 14:29:36;;;;;;;1.33;1.00;;;;;;;;;;5485550;26;20735;-70
2024/04/21 14:32:02;;;;;;;2.17;0.90;;;;;;;;;;5515306;25;20247;-69
2024/04/21 14:34:28;;;;;;;3.25;1.17;;;;;;;;;;5503658;25;20283;-69